sensor_id;sensor_type;location;lat;lon;timestamp;temperature;humidity
59999;DHT22;45859;51.378;6.736;2023-08-06T00:00:20;15.30;99.90
59999;DHT22;45859;51.378;6.736;2023-08-06T00:02:46;15.30;99.90
59999;DHT22;45859;51.378;6.736;2023-08-06T00:05:12;15.30;99.90
59999;DHT22;45859;51.378;6.736;2023-08-06T00:07:37;15.30;99.90
59999;DHT22;45859;51.378;6.736;2023-08-06T00:10:03;15.30;99.90
59999;DHT22;45859;51.378;6.736;2023-08-06T00:12:29;15.30;99.90
59999;DHT22;45859;51.378;6.736;2023-08-06T00:14:55;15.30;99.90
59999;DHT22;45859;51.378;6.736;2023-08-06T00:17:21;15.30;99.90
59999;DHT22;45859;51.378;6.736;2023-08-06T00:19:46;15.20;99.90
59999;DHT22;45859;51.378;6.736;2023-08-06T00:22:12;15.30;99.90
59999;DHT22;45859;51.378;6.736;2023-08-06T00:24:38;15.20;99.90
59999;DHT22;45859;51.378;6.736;2023-08-06T00:27:03;15.20;99.90
59999;DHT22;45859;51.378;6.736;2023-08-06T00:29:29;15.20;99.90
59999;DHT22;45859;51.378;6.736;2023-08-06T00:31:55;15.20;99.90
59999;DHT22;45859;51.378;6.736;2023-08-06T00:34:21;15.10;99.90
59999;DHT22;45859;51.378;6.736;2023-08-06T00:36:46;15.10;99.90
59999;DHT22;45859;51.378;6.736;2023-08-06T00:39:12;15.10;99.90
59999;DHT22;45859;51.378;6.736;2023-08-06T00:41:38;15.00;99.90
59999;DHT22;45859;51.378;6.736;2023-08-06T00:44:03;15.00;99.90
59999;DHT22;45859;51.378;6.736;2023-08-06T00:46:30;15.00;99.90
59999;DHT22;45859;51.378;6.736;2023-08-06T00:48:57;15.00;99.90
59999;DHT22;45859;51.378;6.736;2023-08-06T00:51:22;15.00;99.90
59999;DHT22;45859;51.378;6.736;2023-08-06T00:53:50;15.00;99.90
59999;DHT22;45859;51.378;6.736;2023-08-06T00:56:16;14.90;99.90
59999;DHT22;45859;51.378;6.736;2023-08-06T00:58:42;15.00;99.90
59999;DHT22;45859;51.378;6.736;2023-08-06T01:01:08;15.00;99.90
59999;DHT22;45859;51.378;6.736;2023-08-06T01:03:34;15.00;99.90
59999;DHT22;45859;51.378;6.736;2023-08-06T01:06:00;15.00;99.90
59999;DHT22;45859;51.378;6.736;2023-08-06T01:08:54;15.00;99.90
59999;DHT22;45859;51.378;6.736;2023-08-06T01:14:12;15.00;99.90
59999;DHT22;45859;51.378;6.736;2023-08-06T01:16:42;15.10;99.90
59999;DHT22;45859;51.378;6.736;2023-08-06T01:19:18;15.10;99.90
59999;DHT22;45859;51.378;6.736;2023-08-06T01:21:43;15.10;99.90
59999;DHT22;45859;51.378;6.736;2023-08-06T01:24:09;15.20;99.90
59999;DHT22;45859;51.378;6.736;2023-08-06T01:29:34;15.30;99.90
59999;DHT22;45859;51.378;6.736;2023-08-06T01:32:02;15.30;99.90
59999;DHT22;45859;51.378;6.736;2023-08-06T01:34:31;15.30;99.90
59999;DHT22;45859;51.378;6.736;2023-08-06T01:36:59;15.30;99.90
59999;DHT22;45859;51.378;6.736;2023-08-06T01:39:26;15.40;99.90
59999;DHT22;45859;51.378;6.736;2023-08-06T01:41:52;15.40;99.90
59999;DHT22;45859;51.378;6.736;2023-08-06T01:44:18;15.30;99.90
59999;DHT22;45859;51.378;6.736;2023-08-06T01:46:43;15.30;99.90
59999;DHT22;45859;51.378;6.736;2023-08-06T01:49:09;15.20;99.90
59999;DHT22;45859;51.378;6.736;2023-08-06T01:51:35;15.10;99.90
59999;DHT22;45859;51.378;6.736;2023-08-06T01:54:00;15.10;99.90
59999;DHT22;45859;51.378;6.736;2023-08-06T01:56:26;15.10;99.90
59999;DHT22;45859;51.378;6.736;2023-08-06T01:58:52;15.10;99.90
59999;DHT22;45859;51.378;6.736;2023-08-06T02:01:18;15.00;99.90
59999;DHT22;45859;51.378;6.736;2023-08-06T02:03:43;15.10;99.90
59999;DHT22;45859;51.378;6.736;2023-08-06T02:06:09;15.10;99.90
59999;DHT22;45859;51.378;6.736;2023-08-06T02:08:34;15.10;99.90
59999;DHT22;45859;51.378;6.736;2023-08-06T02:11:00;15.10;99.90
59999;DHT22;45859;51.378;6.736;2023-08-06T02:13:27;15.10;99.90
59999;DHT22;45859;51.378;6.736;2023-08-06T02:15:53;15.10;99.90
59999;DHT22;45859;51.378;6.736;2023-08-06T02:18:18;15.00;99.90
59999;DHT22;45859;51.378;6.736;2023-08-06T02:20:58;15.00;99.90
59999;DHT22;45859;51.378;6.736;2023-08-06T02:23:24;15.00;99.90
59999;DHT22;45859;51.378;6.736;2023-08-06T02:25:58;15.00;99.90
59999;DHT22;45859;51.378;6.736;2023-08-06T02:28:23;15.00;99.90
59999;DHT22;45859;51.378;6.736;2023-08-06T02:30:50;14.90;99.90
59999;DHT22;45859;51.378;6.736;2023-08-06T02:33:19;14.90;99.90
59999;DHT22;45859;51.378;6.736;2023-08-06T02:35:45;15.00;99.90
59999;DHT22;45859;51.378;6.736;2023-08-06T02:38:10;15.00;99.90
59999;DHT22;45859;51.378;6.736;2023-08-06T02:40:36;15.00;99.90
59999;DHT22;45859;51.378;6.736;2023-08-06T02:43:02;15.00;99.90
59999;DHT22;45859;51.378;6.736;2023-08-06T02:45:29;15.00;99.90
59999;DHT22;45859;51.378;6.736;2023-08-06T02:47:55;14.60;99.90
59999;DHT22;45859;51.378;6.736;2023-08-06T02:50:20;15.00;99.90
59999;DHT22;45859;51.378;6.736;2023-08-06T02:52:46;15.10;99.90
59999;DHT22;45859;51.378;6.736;2023-08-06T02:55:12;15.10;99.90
59999;DHT22;45859;51.378;6.736;2023-08-06T02:57:37;15.10;99.90
59999;DHT22;45859;51.378;6.736;2023-08-06T03:00:03;15.10;99.90
59999;DHT22;45859;51.378;6.736;2023-08-06T03:02:29;15.10;99.90
59999;DHT22;45859;51.378;6.736;2023-08-06T03:04:55;15.10;99.90
59999;DHT22;45859;51.378;6.736;2023-08-06T03:07:21;15.10;99.90
59999;DHT22;45859;51.378;6.736;2023-08-06T03:09:46;15.10;99.90
59999;DHT22;45859;51.378;6.736;2023-08-06T03:12:12;15.10;99.90
59999;DHT22;45859;51.378;6.736;2023-08-06T03:14:38;15.10;99.90
59999;DHT22;45859;51.378;6.736;2023-08-06T03:17:04;15.10;99.90
59999;DHT22;45859;51.378;6.736;2023-08-06T03:19:29;15.10;99.90
59999;DHT22;45859;51.378;6.736;2023-08-06T03:21:55;15.10;99.90
59999;DHT22;45859;51.378;6.736;2023-08-06T03:24:20;15.00;99.90
59999;DHT22;45859;51.378;6.736;2023-08-06T03:26:46;14.70;99.90
59999;DHT22;45859;51.378;6.736;2023-08-06T03:29:12;15.00;99.90
59999;DHT22;45859;51.378;6.736;2023-08-06T03:31:37;15.50;99.90
59999;DHT22;45859;51.378;6.736;2023-08-06T03:34:03;15.00;99.90
59999;DHT22;45859;51.378;6.736;2023-08-06T03:36:29;15.00;99.90
59999;DHT22;45859;51.378;6.736;2023-08-06T03:38:54;15.00;99.90
59999;DHT22;45859;51.378;6.736;2023-08-06T03:41:20;15.00;99.90
59999;DHT22;45859;51.378;6.736;2023-08-06T03:43:46;15.00;99.90
59999;DHT22;45859;51.378;6.736;2023-08-06T03:46:11;15.00;99.90
59999;DHT22;45859;51.378;6.736;2023-08-06T03:48:37;15.00;99.90
59999;DHT22;45859;51.378;6.736;2023-08-06T03:51:03;15.00;99.90
59999;DHT22;45859;51.378;6.736;2023-08-06T03:53:28;15.00;99.90
59999;DHT22;45859;51.378;6.736;2023-08-06T03:55:54;15.00;99.90
59999;DHT22;45859;51.378;6.736;2023-08-06T03:58:21;15.00;99.90
59999;DHT22;45859;51.378;6.736;2023-08-06T04:00:46;15.00;99.90
59999;DHT22;45859;51.378;6.736;2023-08-06T04:03:12;15.00;99.90
59999;DHT22;45859;51.378;6.736;2023-08-06T04:05:38;15.00;99.90
59999;DHT22;45859;51.378;6.736;2023-08-06T04:08:04;14.90;99.90
59999;DHT22;45859;51.378;6.736;2023-08-06T04:10:29;15.00;99.90
59999;DHT22;45859;51.378;6.736;2023-08-06T04:12:55;14.90;99.90
59999;DHT22;45859;51.378;6.736;2023-08-06T04:15:20;14.90;99.90
59999;DHT22;45859;51.378;6.736;2023-08-06T04:17:46;14.90;99.90
59999;DHT22;45859;51.378;6.736;2023-08-06T04:20:12;14.90;99.90
59999;DHT22;45859;51.378;6.736;2023-08-06T04:22:37;14.90;99.90
59999;DHT22;45859;51.378;6.736;2023-08-06T04:25:03;14.90;99.90
59999;DHT22;45859;51.378;6.736;2023-08-06T04:27:29;15.00;99.90
59999;DHT22;45859;51.378;6.736;2023-08-06T04:29:55;15.00;99.90
59999;DHT22;45859;51.378;6.736;2023-08-06T04:32:20;15.00;99.90
59999;DHT22;45859;51.378;6.736;2023-08-06T04:34:46;15.00;99.90
59999;DHT22;45859;51.378;6.736;2023-08-06T04:37:13;15.10;99.90
59999;DHT22;45859;51.378;6.736;2023-08-06T04:39:39;15.00;99.90
59999;DHT22;45859;51.378;6.736;2023-08-06T04:42:05;15.10;99.90
59999;DHT22;45859;51.378;6.736;2023-08-06T04:44:31;15.10;99.90
59999;DHT22;45859;51.378;6.736;2023-08-06T04:46:56;15.10;99.90
59999;DHT22;45859;51.378;6.736;2023-08-06T04:49:22;15.10;99.90
59999;DHT22;45859;51.378;6.736;2023-08-06T04:51:48;15.10;99.90
59999;DHT22;45859;51.378;6.736;2023-08-06T04:54:14;15.10;99.90
59999;DHT22;45859;51.378;6.736;2023-08-06T04:56:40;15.00;99.90
59999;DHT22;45859;51.378;6.736;2023-08-06T04:59:06;14.90;99.90
59999;DHT22;45859;51.378;6.736;2023-08-06T05:01:32;14.80;99.90
59999;DHT22;45859;51.378;6.736;2023-08-06T05:03:57;14.90;99.90
59999;DHT22;45859;51.378;6.736;2023-08-06T05:06:23;14.90;99.90
59999;DHT22;45859;51.378;6.736;2023-08-06T05:08:49;14.90;99.90
59999;DHT22;45859;51.378;6.736;2023-08-06T05:11:15;14.90;99.90
59999;DHT22;45859;51.378;6.736;2023-08-06T05:13:40;14.90;99.90
59999;DHT22;45859;51.378;6.736;2023-08-06T05:16:06;14.90;99.90
59999;DHT22;45859;51.378;6.736;2023-08-06T05:18:32;15.00;99.90
59999;DHT22;45859;51.378;6.736;2023-08-06T05:20:59;14.90;99.90
59999;DHT22;45859;51.378;6.736;2023-08-06T05:23:25;15.00;99.90
59999;DHT22;45859;51.378;6.736;2023-08-06T05:25:51;14.90;99.90
59999;DHT22;45859;51.378;6.736;2023-08-06T05:28:16;14.90;99.90
59999;DHT22;45859;51.378;6.736;2023-08-06T05:30:42;15.00;99.90
59999;DHT22;45859;51.378;6.736;2023-08-06T05:33:08;15.00;99.90
59999;DHT22;45859;51.378;6.736;2023-08-06T05:35:34;15.10;99.90
59999;DHT22;45859;51.378;6.736;2023-08-06T05:37:59;15.20;99.90
59999;DHT22;45859;51.378;6.736;2023-08-06T05:40:25;15.30;99.90
59999;DHT22;45859;51.378;6.736;2023-08-06T05:42:53;15.30;99.90
59999;DHT22;45859;51.378;6.736;2023-08-06T05:45:19;15.40;99.90
59999;DHT22;45859;51.378;6.736;2023-08-06T05:47:45;15.50;99.90
59999;DHT22;45859;51.378;6.736;2023-08-06T05:50:10;15.60;99.90
59999;DHT22;45859;51.378;6.736;2023-08-06T05:52:36;15.60;99.90
59999;DHT22;45859;51.378;6.736;2023-08-06T05:55:03;15.70;99.90
59999;DHT22;45859;51.378;6.736;2023-08-06T05:57:28;15.80;99.90
59999;DHT22;45859;51.378;6.736;2023-08-06T05:59:54;15.90;99.90
59999;DHT22;45859;51.378;6.736;2023-08-06T06:02:20;16.10;99.90
59999;DHT22;45859;51.378;6.736;2023-08-06T06:04:45;16.40;99.90
59999;DHT22;45859;51.378;6.736;2023-08-06T06:07:11;16.60;99.90
59999;DHT22;45859;51.378;6.736;2023-08-06T06:09:37;16.90;99.90
59999;DHT22;45859;51.378;6.736;2023-08-06T06:12:05;17.40;99.90
59999;DHT22;45859;51.378;6.736;2023-08-06T06:14:31;18.00;99.90
59999;DHT22;45859;51.378;6.736;2023-08-06T06:16:57;18.50;99.90
59999;DHT22;45859;51.378;6.736;2023-08-06T06:19:22;18.40;99.90
59999;DHT22;45859;51.378;6.736;2023-08-06T06:21:48;18.80;99.90
59999;DHT22;45859;51.378;6.736;2023-08-06T06:24:14;19.60;99.90
59999;DHT22;45859;51.378;6.736;2023-08-06T06:26:39;20.10;99.90
59999;DHT22;45859;51.378;6.736;2023-08-06T06:29:05;19.60;99.90
59999;DHT22;45859;51.378;6.736;2023-08-06T06:31:31;19.40;99.90
59999;DHT22;45859;51.378;6.736;2023-08-06T06:33:57;19.40;99.90
59999;DHT22;45859;51.378;6.736;2023-08-06T06:36:23;19.20;99.90
59999;DHT22;45859;51.378;6.736;2023-08-06T06:38:49;18.90;99.90
59999;DHT22;45859;51.378;6.736;2023-08-06T06:41:15;18.60;99.90
59999;DHT22;45859;51.378;6.736;2023-08-06T06:43:44;18.30;99.90
59999;DHT22;45859;51.378;6.736;2023-08-06T06:46:10;18.20;99.90
59999;DHT22;45859;51.378;6.736;2023-08-06T06:48:35;18.20;99.90
59999;DHT22;45859;51.378;6.736;2023-08-06T06:51:01;18.20;99.90
59999;DHT22;45859;51.378;6.736;2023-08-06T06:53:27;18.10;99.90
59999;DHT22;45859;51.378;6.736;2023-08-06T06:56:11;18.30;99.90
59999;DHT22;45859;51.378;6.736;2023-08-06T06:58:36;18.60;99.90
59999;DHT22;45859;51.378;6.736;2023-08-06T07:01:04;19.10;99.90
59999;DHT22;45859;51.378;6.736;2023-08-06T07:03:29;19.50;99.90
59999;DHT22;45859;51.378;6.736;2023-08-06T07:05:58;20.00;99.90
59999;DHT22;45859;51.378;6.736;2023-08-06T07:08:25;20.20;99.90
59999;DHT22;45859;51.378;6.736;2023-08-06T07:10:51;20.30;99.90
59999;DHT22;45859;51.378;6.736;2023-08-06T07:13:24;20.30;99.90
59999;DHT22;45859;51.378;6.736;2023-08-06T07:15:50;20.00;99.90
59999;DHT22;45859;51.378;6.736;2023-08-06T07:18:15;20.10;99.90
59999;DHT22;45859;51.378;6.736;2023-08-06T07:20:41;20.00;99.90
59999;DHT22;45859;51.378;6.736;2023-08-06T07:23:07;19.90;99.90
59999;DHT22;45859;51.378;6.736;2023-08-06T07:25:33;19.70;99.90
59999;DHT22;45859;51.378;6.736;2023-08-06T07:27:58;19.20;99.90
59999;DHT22;45859;51.378;6.736;2023-08-06T07:30:24;18.60;99.90
59999;DHT22;45859;51.378;6.736;2023-08-06T07:32:50;18.10;99.90
59999;DHT22;45859;51.378;6.736;2023-08-06T07:35:15;17.50;99.90
59999;DHT22;45859;51.378;6.736;2023-08-06T07:37:41;17.50;99.90
59999;DHT22;45859;51.378;6.736;2023-08-06T07:40:07;17.30;99.90
59999;DHT22;45859;51.378;6.736;2023-08-06T07:42:33;17.20;99.90
59999;DHT22;45859;51.378;6.736;2023-08-06T07:44:59;17.10;99.90
59999;DHT22;45859;51.378;6.736;2023-08-06T07:47:25;17.10;99.90
59999;DHT22;45859;51.378;6.736;2023-08-06T07:49:51;17.10;99.90
59999;DHT22;45859;51.378;6.736;2023-08-06T07:52:17;17.00;99.90
59999;DHT22;45859;51.378;6.736;2023-08-06T07:54:43;17.00;99.90
59999;DHT22;45859;51.378;6.736;2023-08-06T07:57:09;16.90;99.90
59999;DHT22;45859;51.378;6.736;2023-08-06T07:59:34;17.00;99.90
59999;DHT22;45859;51.378;6.736;2023-08-06T08:02:00;17.00;99.90
59999;DHT22;45859;51.378;6.736;2023-08-06T08:04:26;17.10;99.90
59999;DHT22;45859;51.378;6.736;2023-08-06T08:06:52;17.20;99.90
59999;DHT22;45859;51.378;6.736;2023-08-06T08:09:18;17.30;99.90
59999;DHT22;45859;51.378;6.736;2023-08-06T08:11:44;17.50;99.90
59999;DHT22;45859;51.378;6.736;2023-08-06T08:14:10;17.60;99.90
59999;DHT22;45859;51.378;6.736;2023-08-06T08:16:35;17.70;99.90
59999;DHT22;45859;51.378;6.736;2023-08-06T08:19:01;17.80;99.90
59999;DHT22;45859;51.378;6.736;2023-08-06T08:21:28;17.90;99.90
59999;DHT22;45859;51.378;6.736;2023-08-06T08:23:54;17.90;99.90
59999;DHT22;45859;51.378;6.736;2023-08-06T08:26:19;18.00;99.90
59999;DHT22;45859;51.378;6.736;2023-08-06T08:28:45;18.00;99.90
59999;DHT22;45859;51.378;6.736;2023-08-06T08:31:11;18.20;99.90
59999;DHT22;45859;51.378;6.736;2023-08-06T08:33:40;18.10;99.90
59999;DHT22;45859;51.378;6.736;2023-08-06T08:36:06;18.10;99.90
59999;DHT22;45859;51.378;6.736;2023-08-06T08:38:31;18.10;99.90
59999;DHT22;45859;51.378;6.736;2023-08-06T08:40:57;18.10;99.90
59999;DHT22;45859;51.378;6.736;2023-08-06T08:43:23;18.20;99.90
59999;DHT22;45859;51.378;6.736;2023-08-06T08:45:54;18.30;99.90
59999;DHT22;45859;51.378;6.736;2023-08-06T08:48:26;19.10;99.90
59999;DHT22;45859;51.378;6.736;2023-08-06T08:50:52;18.40;99.90
59999;DHT22;45859;51.378;6.736;2023-08-06T08:53:18;18.40;99.90
59999;DHT22;45859;51.378;6.736;2023-08-06T08:55:47;18.50;99.90
59999;DHT22;45859;51.378;6.736;2023-08-06T08:58:14;18.50;99.90
59999;DHT22;45859;51.378;6.736;2023-08-06T09:00:46;18.50;99.90
59999;DHT22;45859;51.378;6.736;2023-08-06T09:03:14;18.40;99.90
59999;DHT22;45859;51.378;6.736;2023-08-06T09:05:44;18.50;99.90
59999;DHT22;45859;51.378;6.736;2023-08-06T09:08:12;18.60;99.90
59999;DHT22;45859;51.378;6.736;2023-08-06T09:10:40;18.60;99.90
59999;DHT22;45859;51.378;6.736;2023-08-06T09:13:06;18.60;99.90
59999;DHT22;45859;51.378;6.736;2023-08-06T09:15:32;18.70;99.90
59999;DHT22;45859;51.378;6.736;2023-08-06T09:17:59;18.60;99.90
59999;DHT22;45859;51.378;6.736;2023-08-06T09:20:24;18.70;99.90
59999;DHT22;45859;51.378;6.736;2023-08-06T09:22:53;18.80;99.90
59999;DHT22;45859;51.378;6.736;2023-08-06T09:25:23;18.90;99.90
59999;DHT22;45859;51.378;6.736;2023-08-06T09:27:50;18.90;99.90
59999;DHT22;45859;51.378;6.736;2023-08-06T09:30:43;18.90;99.90
59999;DHT22;45859;51.378;6.736;2023-08-06T09:33:09;18.90;99.90
59999;DHT22;45859;51.378;6.736;2023-08-06T09:35:39;18.90;99.90
59999;DHT22;45859;51.378;6.736;2023-08-06T09:38:06;18.90;99.90
59999;DHT22;45859;51.378;6.736;2023-08-06T09:40:32;18.80;99.90
59999;DHT22;45859;51.378;6.736;2023-08-06T09:42:59;18.90;99.90
59999;DHT22;45859;51.378;6.736;2023-08-06T09:45:36;18.80;99.90
59999;DHT22;45859;51.378;6.736;2023-08-06T09:48:06;18.80;99.90
59999;DHT22;45859;51.378;6.736;2023-08-06T09:50:39;18.80;99.90
59999;DHT22;45859;51.378;6.736;2023-08-06T09:53:07;18.70;99.90
59999;DHT22;45859;51.378;6.736;2023-08-06T09:55:34;18.20;99.90
59999;DHT22;45859;51.378;6.736;2023-08-06T09:58:00;18.90;99.90
59999;DHT22;45859;51.378;6.736;2023-08-06T10:00:26;19.00;99.90
59999;DHT22;45859;51.378;6.736;2023-08-06T10:02:53;18.90;99.90
59999;DHT22;45859;51.378;6.736;2023-08-06T10:05:22;18.80;99.90
59999;DHT22;45859;51.378;6.736;2023-08-06T10:07:49;18.90;99.90
59999;DHT22;45859;51.378;6.736;2023-08-06T10:10:16;18.70;99.90
59999;DHT22;45859;51.378;6.736;2023-08-06T10:12:49;18.20;99.90
59999;DHT22;45859;51.378;6.736;2023-08-06T10:15:22;17.70;99.90
59999;DHT22;45859;51.378;6.736;2023-08-06T10:17:51;17.30;99.90
59999;DHT22;45859;51.378;6.736;2023-08-06T10:20:18;17.10;99.90
59999;DHT22;45859;51.378;6.736;2023-08-06T10:22:46;17.00;99.90
59999;DHT22;45859;51.378;6.736;2023-08-06T10:25:24;17.00;99.90
59999;DHT22;45859;51.378;6.736;2023-08-06T10:32:52;16.50;99.90
59999;DHT22;45859;51.378;6.736;2023-08-06T10:35:38;16.20;99.90
59999;DHT22;45859;51.378;6.736;2023-08-06T10:38:07;16.10;99.90
59999;DHT22;45859;51.378;6.736;2023-08-06T10:40:33;14.90;99.90
59999;DHT22;45859;51.378;6.736;2023-08-06T10:43:00;15.80;99.90
59999;DHT22;45859;51.378;6.736;2023-08-06T10:45:26;15.70;99.90
59999;DHT22;45859;51.378;6.736;2023-08-06T10:47:55;15.70;99.90
59999;DHT22;45859;51.378;6.736;2023-08-06T10:50:24;15.60;99.90
59999;DHT22;45859;51.378;6.736;2023-08-06T10:52:51;14.80;99.90
59999;DHT22;45859;51.378;6.736;2023-08-06T10:55:28;15.00;99.90
59999;DHT22;45859;51.378;6.736;2023-08-06T10:57:54;15.00;99.90
59999;DHT22;45859;51.378;6.736;2023-08-06T11:00:22;14.70;99.90
59999;DHT22;45859;51.378;6.736;2023-08-06T11:02:49;14.70;99.90
59999;DHT22;45859;51.378;6.736;2023-08-06T11:05:16;14.70;99.90
59999;DHT22;45859;51.378;6.736;2023-08-06T11:07:42;14.20;99.90
59999;DHT22;45859;51.378;6.736;2023-08-06T11:10:12;14.70;99.90
59999;DHT22;45859;51.378;6.736;2023-08-06T11:12:38;14.60;99.90
59999;DHT22;45859;51.378;6.736;2023-08-06T11:15:05;14.60;99.90
59999;DHT22;45859;51.378;6.736;2023-08-06T11:17:33;14.00;99.90
59999;DHT22;45859;51.378;6.736;2023-08-06T11:20:03;14.70;99.90
59999;DHT22;45859;51.378;6.736;2023-08-06T11:22:30;14.50;99.90
59999;DHT22;45859;51.378;6.736;2023-08-06T11:24:55;14.50;99.90
59999;DHT22;45859;51.378;6.736;2023-08-06T11:27:22;14.50;99.90
59999;DHT22;45859;51.378;6.736;2023-08-06T11:29:47;14.60;99.90
59999;DHT22;45859;51.378;6.736;2023-08-06T11:32:13;14.60;99.90
59999;DHT22;45859;51.378;6.736;2023-08-06T11:34:39;14.70;99.90
59999;DHT22;45859;51.378;6.736;2023-08-06T11:37:06;14.50;99.90
59999;DHT22;45859;51.378;6.736;2023-08-06T11:39:33;14.60;99.90
59999;DHT22;45859;51.378;6.736;2023-08-06T11:41:59;14.40;99.90
59999;DHT22;45859;51.378;6.736;2023-08-06T11:44:30;14.80;99.90
59999;DHT22;45859;51.378;6.736;2023-08-06T11:46:57;14.50;99.90
59999;DHT22;45859;51.378;6.736;2023-08-06T11:49:46;14.60;99.90
59999;DHT22;45859;51.378;6.736;2023-08-06T11:52:25;14.70;99.90
59999;DHT22;45859;51.378;6.736;2023-08-06T11:55:05;14.70;99.90
59999;DHT22;45859;51.378;6.736;2023-08-06T11:57:38;14.70;99.90
59999;DHT22;45859;51.378;6.736;2023-08-06T12:00:10;14.60;99.90
59999;DHT22;45859;51.378;6.736;2023-08-06T12:02:38;14.40;99.90
59999;DHT22;45859;51.378;6.736;2023-08-06T12:05:09;14.60;99.90
59999;DHT22;45859;51.378;6.736;2023-08-06T12:07:43;14.60;99.90
59999;DHT22;45859;51.378;6.736;2023-08-06T12:10:10;14.70;99.90
59999;DHT22;45859;51.378;6.736;2023-08-06T12:12:36;15.20;99.90
59999;DHT22;45859;51.378;6.736;2023-08-06T12:15:03;14.70;99.90
59999;DHT22;45859;51.378;6.736;2023-08-06T12:17:29;14.70;99.90
59999;DHT22;45859;51.378;6.736;2023-08-06T12:19:54;14.70;99.90
59999;DHT22;45859;51.378;6.736;2023-08-06T12:22:20;14.80;99.90
59999;DHT22;45859;51.378;6.736;2023-08-06T12:24:47;14.70;99.90
59999;DHT22;45859;51.378;6.736;2023-08-06T12:27:13;14.70;99.90
59999;DHT22;45859;51.378;6.736;2023-08-06T12:29:45;14.80;99.90
59999;DHT22;45859;51.378;6.736;2023-08-06T12:32:12;14.70;99.90
59999;DHT22;45859;51.378;6.736;2023-08-06T12:34:41;14.80;99.90
59999;DHT22;45859;51.378;6.736;2023-08-06T12:37:08;14.50;99.90
59999;DHT22;45859;51.378;6.736;2023-08-06T12:39:37;14.80;99.90
59999;DHT22;45859;51.378;6.736;2023-08-06T12:42:04;14.80;99.90
59999;DHT22;45859;51.378;6.736;2023-08-06T12:44:30;15.00;99.90
59999;DHT22;45859;51.378;6.736;2023-08-06T12:46:56;15.00;99.90
59999;DHT22;45859;51.378;6.736;2023-08-06T12:49:22;14.90;99.90
59999;DHT22;45859;51.378;6.736;2023-08-06T12:51:49;15.00;99.90
59999;DHT22;45859;51.378;6.736;2023-08-06T12:54:16;15.10;99.90
59999;DHT22;45859;51.378;6.736;2023-08-06T12:56:43;15.20;99.90
59999;DHT22;45859;51.378;6.736;2023-08-06T12:59:08;15.20;99.90
59999;DHT22;45859;51.378;6.736;2023-08-06T13:01:34;15.30;99.90
59999;DHT22;45859;51.378;6.736;2023-08-06T13:04:00;15.20;99.90
59999;DHT22;45859;51.378;6.736;2023-08-06T13:06:26;15.30;99.90
59999;DHT22;45859;51.378;6.736;2023-08-06T13:08:52;15.20;99.90
59999;DHT22;45859;51.378;6.736;2023-08-06T13:11:17;15.30;99.90
59999;DHT22;45859;51.378;6.736;2023-08-06T13:13:44;15.30;99.90
59999;DHT22;45859;51.378;6.736;2023-08-06T13:16:10;15.30;99.90
59999;DHT22;45859;51.378;6.736;2023-08-06T13:18:36;15.30;99.90
59999;DHT22;45859;51.378;6.736;2023-08-06T13:21:01;15.20;99.90
59999;DHT22;45859;51.378;6.736;2023-08-06T13:23:27;15.20;99.90
59999;DHT22;45859;51.378;6.736;2023-08-06T13:25:53;15.20;99.90
59999;DHT22;45859;51.378;6.736;2023-08-06T13:28:19;14.90;99.90
59999;DHT22;45859;51.378;6.736;2023-08-06T13:30:45;15.10;99.90
59999;DHT22;45859;51.378;6.736;2023-08-06T13:33:11;15.20;99.90
59999;DHT22;45859;51.378;6.736;2023-08-06T13:35:37;15.30;99.90
59999;DHT22;45859;51.378;6.736;2023-08-06T13:38:03;15.20;99.90
59999;DHT22;45859;51.378;6.736;2023-08-06T13:40:32;15.30;99.90
59999;DHT22;45859;51.378;6.736;2023-08-06T13:42:57;15.50;99.90
59999;DHT22;45859;51.378;6.736;2023-08-06T13:45:23;15.30;99.90
59999;DHT22;45859;51.378;6.736;2023-08-06T13:47:49;15.30;99.90
59999;DHT22;45859;51.378;6.736;2023-08-06T13:50:15;15.30;99.90
59999;DHT22;45859;51.378;6.736;2023-08-06T13:52:41;15.40;99.90
59999;DHT22;45859;51.378;6.736;2023-08-06T13:55:07;15.30;99.90
59999;DHT22;45859;51.378;6.736;2023-08-06T13:57:34;15.30;99.90
59999;DHT22;45859;51.378;6.736;2023-08-06T14:00:00;15.20;99.90
59999;DHT22;45859;51.378;6.736;2023-08-06T14:02:26;15.20;99.90
59999;DHT22;45859;51.378;6.736;2023-08-06T14:04:52;15.70;99.90
59999;DHT22;45859;51.378;6.736;2023-08-06T14:07:18;15.30;99.90
59999;DHT22;45859;51.378;6.736;2023-08-06T14:09:44;15.30;99.90
59999;DHT22;45859;51.378;6.736;2023-08-06T14:12:10;15.30;99.90
59999;DHT22;45859;51.378;6.736;2023-08-06T14:14:36;15.40;99.90
59999;DHT22;45859;51.378;6.736;2023-08-06T14:17:01;15.50;99.90
59999;DHT22;45859;51.378;6.736;2023-08-06T14:19:27;15.40;99.90
59999;DHT22;45859;51.378;6.736;2023-08-06T14:21:54;15.40;99.90
59999;DHT22;45859;51.378;6.736;2023-08-06T14:24:21;15.40;99.90
59999;DHT22;45859;51.378;6.736;2023-08-06T14:26:46;16.20;99.90
59999;DHT22;45859;51.378;6.736;2023-08-06T14:29:12;15.50;99.90
59999;DHT22;45859;51.378;6.736;2023-08-06T14:31:39;15.60;99.90
59999;DHT22;45859;51.378;6.736;2023-08-06T14:34:05;15.80;99.90
59999;DHT22;45859;51.378;6.736;2023-08-06T14:36:31;16.00;99.90
59999;DHT22;45859;51.378;6.736;2023-08-06T14:38:57;16.00;99.90
59999;DHT22;45859;51.378;6.736;2023-08-06T14:41:22;16.20;99.90
59999;DHT22;45859;51.378;6.736;2023-08-06T14:43:49;16.40;99.90
59999;DHT22;45859;51.378;6.736;2023-08-06T14:46:15;16.80;99.90
59999;DHT22;45859;51.378;6.736;2023-08-06T14:48:41;16.50;99.90
59999;DHT22;45859;51.378;6.736;2023-08-06T14:51:08;16.50;99.90
59999;DHT22;45859;51.378;6.736;2023-08-06T14:53:33;16.60;99.90
59999;DHT22;45859;51.378;6.736;2023-08-06T14:55:59;16.60;99.90
59999;DHT22;45859;51.378;6.736;2023-08-06T14:58:25;16.70;99.90
59999;DHT22;45859;51.378;6.736;2023-08-06T15:00:51;16.60;99.90
59999;DHT22;45859;51.378;6.736;2023-08-06T15:03:17;16.70;99.90
59999;DHT22;45859;51.378;6.736;2023-08-06T15:05:49;17.60;99.90
59999;DHT22;45859;51.378;6.736;2023-08-06T15:08:15;16.70;99.90
59999;DHT22;45859;51.378;6.736;2023-08-06T15:10:41;16.80;99.90
59999;DHT22;45859;51.378;6.736;2023-08-06T15:13:06;16.90;99.90
59999;DHT22;45859;51.378;6.736;2023-08-06T15:15:32;17.00;99.90
59999;DHT22;45859;51.378;6.736;2023-08-06T15:17:58;17.00;99.90
59999;DHT22;45859;51.378;6.736;2023-08-06T15:20:24;17.10;99.90
59999;DHT22;45859;51.378;6.736;2023-08-06T15:22:50;17.10;99.90
59999;DHT22;45859;51.378;6.736;2023-08-06T15:25:16;17.10;99.90
59999;DHT22;45859;51.378;6.736;2023-08-06T15:27:42;17.20;99.90
59999;DHT22;45859;51.378;6.736;2023-08-06T15:30:08;17.30;99.90
59999;DHT22;45859;51.378;6.736;2023-08-06T15:32:34;17.30;99.90
59999;DHT22;45859;51.378;6.736;2023-08-06T15:34:59;17.20;99.90
59999;DHT22;45859;51.378;6.736;2023-08-06T15:37:25;17.20;99.90